Bourton on the Water, United Kingdom
Current Conditions -  °F | °C
As of 5:50 PM on Friday 24 Oct 2014 (Local Time) from EGVN Reporting Station
Broken Clouds Broken Clouds  
Wind Chill: 57°   Ceiling: 4500
Heat Index: 57°   Visibility: 6mi
Dew Point: 55°   Wind: 7mph
Humidity: 94%   Direction: 250°WSW
Pressure: 29.88"   Gusts: NA
Location:  51.87°N, 1.75°W
Report Text: EGVN 241650Z 25006KT 9999 SCT012 BKN045 14/13 Q1012 TEMPO FEW012
Loading
Personal Weather Stations






























Interactive Weather Map New forecast layout! Learn more

10-Day Weather Forecast

Advertisements
Track Severe Weather on mobile